• Join FlightAware (Why Join?)
  • Login
  • US Flag 
09:51PM EDT


 

Airport Tracker/Info


-or-


 

Live Flight TrackerFlight Track Log ✈ JZA8193 ✈ 23-Jul-2013 ✈ CYKA - CYVR

Flight Track Log - Related Links

Times and Time Zones

All times are in EDT time to prevent confusion due to time zone crossing. See the JZA8193 flight status page for this flight to view local times or setup timezone preferences in your user account.

Time Position Orientation Groundspeed Altitude Reporting Facility
EDT Latitude Longitude Course Direction KTS MPH feet Rate Location/Type
02:49PM 50.7000 -120.5000 210° Southwest 120 138 3,400  Level Vancouver Center
02:50PM 50.7167 -120.5500 298° West 140 161 4,800 1,440 Climbing Vancouver Center
02:51PM 50.6833 -120.6167 232° Southwest 160 184 6,300 1,500 Climbing Vancouver Center
02:52PM 50.5011 -120.4823 212° Southwest  Level FlightAware Approximate
02:52PM 50.6500 -120.6667 224° Southwest 160 184 7,900  Level Vancouver Center
02:53PM 50.4449 -120.5333 180° South  Level FlightAware Approximate
02:53PM 50.6000 -120.7000 203° Southwest 160 184 9,200  Level Vancouver Center
02:54PM 50.3868 -120.5766 210° Southwest  Level FlightAware Approximate
02:54PM 50.5667 -120.7500 224° Southwest 170 196 10,500  Level Vancouver Center
02:55PM 50.3298 -120.6273 210° Southwest  Level FlightAware Approximate
02:55PM 50.5333 -120.8000 224° Southwest 170 196 11,800  Level Vancouver Center
02:56PM 50.5000 -120.8333 212° Southwest 170 196 13,100 1,200 Climbing Vancouver Center
02:57PM 50.4500 -120.8833 212° Southwest 170 196 14,300 960 Climbing Vancouver Center
02:58PM 50.4167 -120.9500 232° Southwest 180 207 15,100 840 Climbing Vancouver Center
02:59PM 50.3667 -121.0000 213° Southwest 190 219 16,000 420 Climbing Vancouver Center
03:00PM 50.3333 -121.0500 224° Southwest 200 230 16,000  Level Vancouver Center
03:01PM 50.2833 -121.1000 213° Southwest 220 253 16,000  Level Vancouver Center
03:02PM 50.2333 -121.1667 220° Southwest 230 265 16,000  Level Vancouver Center
03:03PM 50.1833 -121.2500 227° Southwest 240 276 16,000  Level Vancouver Center
03:04PM 50.1333 -121.3000 213° Southwest 240 276 16,000  Level Vancouver Center
03:05PM 50.0667 -121.3500 206° Southwest 240 276 16,000  Level Vancouver Center
03:06PM 50.0167 -121.4167 221° Southwest 240 276 16,000  Level Vancouver Center
03:07PM 49.9667 -121.4833 221° Southwest 240 276 16,000  Level Vancouver Center
03:08PM 49.9167 -121.5500 221° Southwest 240 276 16,000  Level Vancouver Center
03:09PM 49.8667 -121.6000 213° Southwest 240 276 16,000  Level Vancouver Center
03:10PM 49.8167 -121.6833 227° Southwest 240 276 16,000 -60 Level Vancouver Center
03:11PM 49.7667 -121.7333 213° Southwest 230 265 15,900  Descending Vancouver Center
03:12PM 49.7000 -121.8167 219° Southwest 240 276 16,000 -300 Climbing Vancouver Center
03:13PM 49.6500 -121.8667 213° Southwest 240 276 15,400 -720 Descending Vancouver Center
03:14PM 49.6000 -121.9167 213° Southwest 230 265 14,600 -900 Descending Vancouver Center
03:15PM 49.5500 -121.9500 203° Southwest 220 253 13,600 -1,080 Descending Vancouver Center
03:16PM 49.4833 -121.9667 189° South 230 265 12,500 -1,020 Descending Vancouver Center
03:17PM 49.4167 -122.0333 213° Southwest 230 265 11,600 -960 Descending Vancouver Center
03:18PM 49.4167 -122.1000 270° West 240 276 10,600 -900 Descending Vancouver Center
03:19PM 49.4000 -122.2333 259° West 260 299 9,900 -780 Descending Vancouver Center
03:20PM 49.3833 -122.3333 256° West 270 311 9,100 -480 Descending Vancouver Center
03:21PM 49.3833 -122.4333 270° West 270 311 9,000 -420 Descending Vancouver Center
03:22PM 49.3667 -122.5667 259° West 250 288 8,300 -900 Descending Vancouver Center
03:23PM 49.3500 -122.6500 253° West 240 276 7,300 -660 Descending Vancouver Center
03:24PM 49.2833 -122.6667 189° South 230 265 7,000 -600 Descending Vancouver Center
03:25PM 49.2333 -122.7333 221° Southwest 230 265 6,100 -1,140 Descending Vancouver Center
03:26PM 49.1833 -122.7833 213° Southwest 240 276 4,800 -1,380 Descending Vancouver Center
03:27PM 49.1500 -122.8833 243° Southwest 230 265 3,400 -1,200 Descending Vancouver Center
03:28PM 49.1667 -122.9500 291° West 220 253 2,500 -960 Descending Vancouver Center
03:29PM 49.1667 -123.0333 270° West 180 207 1,500 -1,020 Descending Vancouver Center